METAR Data
IDs: Format: Raw Decoded Include TAF

Data at: 2155 UTC 08 Aug 2020

METAR for:KSPB (Scappoose Ind Airpar, OR, US)
Text:KSPB 082053Z AUTO 27008G15KT 10SM BKN055 25/09 A3017 RMK AO2 SLP215 T02500089 58006
Temperature: 25.0°C ( 77°F)
Dewpoint: 8.9°C ( 48°F) [RH = 36%]
Pressure (altimeter):30.17 inches Hg (1021.8 mb) [Sea level pressure: 1021.5 mb]
Winds:from the W (270 degrees) at 9 MPH (8 knots; 4.1 m/s) gusting to 17 MPH (15 knots; 7.7 m/s)
Visibility:10 or more sm (16+ km)
Ceiling:5500 feet AGL
Clouds: broken clouds at 5500 feet AGL
QC Flag:automated observation with no human augmentation